sensor_id;sensor_type;location;lat;lon;timestamp;temperature;humidity
57108;DHT22;42987;52.916;6.542;2022-08-26T00:00:33;21.10;99.90
57108;DHT22;42987;52.916;6.542;2022-08-26T00:02:59;21.10;99.90
57108;DHT22;42987;52.916;6.542;2022-08-26T00:05:25;21.10;99.90
57108;DHT22;42987;52.916;6.542;2022-08-26T00:07:51;21.00;99.90
57108;DHT22;42987;52.916;6.542;2022-08-26T00:10:19;20.90;99.90
57108;DHT22;42987;52.916;6.542;2022-08-26T00:12:44;20.90;99.90
57108;DHT22;42987;52.916;6.542;2022-08-26T00:15:13;20.90;99.90
57108;DHT22;42987;52.916;6.542;2022-08-26T00:17:40;20.80;99.90
57108;DHT22;42987;52.916;6.542;2022-08-26T00:20:08;20.80;99.90
57108;DHT22;42987;52.916;6.542;2022-08-26T00:22:35;20.80;99.90
57108;DHT22;42987;52.916;6.542;2022-08-26T00:25:02;20.70;99.90
57108;DHT22;42987;52.916;6.542;2022-08-26T00:27:28;20.70;99.90
57108;DHT22;42987;52.916;6.542;2022-08-26T00:29:59;20.70;99.90
57108;DHT22;42987;52.916;6.542;2022-08-26T00:32:25;20.70;99.90
57108;DHT22;42987;52.916;6.542;2022-08-26T00:34:51;20.70;99.90
57108;DHT22;42987;52.916;6.542;2022-08-26T00:37:17;20.60;99.90
57108;DHT22;42987;52.916;6.542;2022-08-26T00:39:43;20.70;99.90
57108;DHT22;42987;52.916;6.542;2022-08-26T00:42:09;20.60;99.90
57108;DHT22;42987;52.916;6.542;2022-08-26T00:44:38;20.60;99.90
57108;DHT22;42987;52.916;6.542;2022-08-26T00:47:08;20.60;99.90
57108;DHT22;42987;52.916;6.542;2022-08-26T00:49:39;20.70;99.90
57108;DHT22;42987;52.916;6.542;2022-08-26T00:52:13;20.60;99.90
57108;DHT22;42987;52.916;6.542;2022-08-26T00:54:46;20.60;99.90
57108;DHT22;42987;52.916;6.542;2022-08-26T00:57:16;20.60;99.90
57108;DHT22;42987;52.916;6.542;2022-08-26T00:59:46;20.50;99.90
57108;DHT22;42987;52.916;6.542;2022-08-26T01:02:12;20.50;99.90
57108;DHT22;42987;52.916;6.542;2022-08-26T01:04:39;20.60;99.90
57108;DHT22;42987;52.916;6.542;2022-08-26T01:07:09;20.60;99.90
57108;DHT22;42987;52.916;6.542;2022-08-26T01:09:35;20.60;99.90
57108;DHT22;42987;52.916;6.542;2022-08-26T01:12:04;20.60;99.90
57108;DHT22;42987;52.916;6.542;2022-08-26T01:14:33;20.60;99.90
57108;DHT22;42987;52.916;6.542;2022-08-26T01:17:02;20.60;99.90
57108;DHT22;42987;52.916;6.542;2022-08-26T01:19:42;20.60;99.90
57108;DHT22;42987;52.916;6.542;2022-08-26T01:22:13;20.60;99.90
57108;DHT22;42987;52.916;6.542;2022-08-26T01:24:40;20.60;99.90
57108;DHT22;42987;52.916;6.542;2022-08-26T01:27:08;20.60;99.90
57108;DHT22;42987;52.916;6.542;2022-08-26T01:29:37;20.60;99.90
57108;DHT22;42987;52.916;6.542;2022-08-26T01:32:09;20.60;99.90
57108;DHT22;42987;52.916;6.542;2022-08-26T01:34:37;20.70;99.90
57108;DHT22;42987;52.916;6.542;2022-08-26T01:37:13;20.70;99.90
57108;DHT22;42987;52.916;6.542;2022-08-26T01:39:41;20.70;99.90
57108;DHT22;42987;52.916;6.542;2022-08-26T01:42:10;20.70;99.90
57108;DHT22;42987;52.916;6.542;2022-08-26T01:44:44;20.70;99.90
57108;DHT22;42987;52.916;6.542;2022-08-26T01:47:14;20.70;99.90
57108;DHT22;42987;52.916;6.542;2022-08-26T01:49:42;20.70;99.90
57108;DHT22;42987;52.916;6.542;2022-08-26T01:52:14;20.70;99.90
57108;DHT22;42987;52.916;6.542;2022-08-26T01:54:43;20.70;99.90
57108;DHT22;42987;52.916;6.542;2022-08-26T01:57:09;20.70;99.90
57108;DHT22;42987;52.916;6.542;2022-08-26T01:59:35;20.70;99.90
57108;DHT22;42987;52.916;6.542;2022-08-26T02:02:01;20.70;99.90
57108;DHT22;42987;52.916;6.542;2022-08-26T02:04:33;20.70;99.90
57108;DHT22;42987;52.916;6.542;2022-08-26T02:07:03;20.70;99.90
57108;DHT22;42987;52.916;6.542;2022-08-26T02:09:29;20.80;99.90
57108;DHT22;42987;52.916;6.542;2022-08-26T02:11:55;20.70;99.90
57108;DHT22;42987;52.916;6.542;2022-08-26T02:14:24;20.70;99.90
57108;DHT22;42987;52.916;6.542;2022-08-26T02:16:53;20.80;99.90
57108;DHT22;42987;52.916;6.542;2022-08-26T02:19:23;20.80;99.90
57108;DHT22;42987;52.916;6.542;2022-08-26T02:21:52;20.70;99.90
57108;DHT22;42987;52.916;6.542;2022-08-26T02:24:24;20.70;99.90
57108;DHT22;42987;52.916;6.542;2022-08-26T02:26:51;20.70;99.90
57108;DHT22;42987;52.916;6.542;2022-08-26T02:29:34;20.70;99.90
57108;DHT22;42987;52.916;6.542;2022-08-26T02:32:01;20.70;99.90
57108;DHT22;42987;52.916;6.542;2022-08-26T02:34:29;20.70;99.90
57108;DHT22;42987;52.916;6.542;2022-08-26T02:36:57;20.60;99.90
57108;DHT22;42987;52.916;6.542;2022-08-26T02:39:23;20.60;99.90
57108;DHT22;42987;52.916;6.542;2022-08-26T02:41:49;20.60;99.90
57108;DHT22;42987;52.916;6.542;2022-08-26T02:44:15;20.60;99.90
57108;DHT22;42987;52.916;6.542;2022-08-26T02:46:41;20.60;99.90
57108;DHT22;42987;52.916;6.542;2022-08-26T02:49:08;20.60;99.90
57108;DHT22;42987;52.916;6.542;2022-08-26T02:51:34;20.60;99.90
57108;DHT22;42987;52.916;6.542;2022-08-26T02:54:00;20.60;99.90
57108;DHT22;42987;52.916;6.542;2022-08-26T02:56:26;20.60;99.90
57108;DHT22;42987;52.916;6.542;2022-08-26T02:58:52;20.60;99.90
57108;DHT22;42987;52.916;6.542;2022-08-26T03:01:23;20.60;99.90
57108;DHT22;42987;52.916;6.542;2022-08-26T03:03:49;20.60;99.90
57108;DHT22;42987;52.916;6.542;2022-08-26T03:06:15;20.60;99.90
57108;DHT22;42987;52.916;6.542;2022-08-26T03:08:41;20.50;99.90
57108;DHT22;42987;52.916;6.542;2022-08-26T03:11:06;20.60;99.90
57108;DHT22;42987;52.916;6.542;2022-08-26T03:13:40;20.60;99.90
57108;DHT22;42987;52.916;6.542;2022-08-26T03:16:09;20.60;99.90
57108;DHT22;42987;52.916;6.542;2022-08-26T03:18:38;20.60;99.90
57108;DHT22;42987;52.916;6.542;2022-08-26T03:21:11;20.60;99.90
57108;DHT22;42987;52.916;6.542;2022-08-26T03:23:38;20.60;99.90
57108;DHT22;42987;52.916;6.542;2022-08-26T03:26:06;20.60;99.90
57108;DHT22;42987;52.916;6.542;2022-08-26T03:28:32;20.60;99.90
57108;DHT22;42987;52.916;6.542;2022-08-26T03:30:58;20.60;99.90
57108;DHT22;42987;52.916;6.542;2022-08-26T03:33:25;20.60;99.90
57108;DHT22;42987;52.916;6.542;2022-08-26T03:35:52;20.60;99.90
57108;DHT22;42987;52.916;6.542;2022-08-26T03:38:19;20.60;99.90
57108;DHT22;42987;52.916;6.542;2022-08-26T03:40:45;20.60;99.90
57108;DHT22;42987;52.916;6.542;2022-08-26T03:43:11;20.60;99.90
57108;DHT22;42987;52.916;6.542;2022-08-26T03:45:38;20.60;99.90
57108;DHT22;42987;52.916;6.542;2022-08-26T03:48:06;20.60;99.90
57108;DHT22;42987;52.916;6.542;2022-08-26T03:50:32;20.60;99.90
57108;DHT22;42987;52.916;6.542;2022-08-26T03:52:58;20.60;99.90
57108;DHT22;42987;52.916;6.542;2022-08-26T03:55:27;20.60;99.90
57108;DHT22;42987;52.916;6.542;2022-08-26T03:57:56;20.60;99.90
57108;DHT22;42987;52.916;6.542;2022-08-26T04:00:23;20.60;99.90
57108;DHT22;42987;52.916;6.542;2022-08-26T04:02:49;20.60;99.90
57108;DHT22;42987;52.916;6.542;2022-08-26T04:05:17;20.60;99.90
57108;DHT22;42987;52.916;6.542;2022-08-26T04:07:45;20.60;99.90
57108;DHT22;42987;52.916;6.542;2022-08-26T04:10:13;20.60;99.90
57108;DHT22;42987;52.916;6.542;2022-08-26T04:12:39;20.50;99.90
57108;DHT22;42987;52.916;6.542;2022-08-26T04:15:12;20.50;99.90
57108;DHT22;42987;52.916;6.542;2022-08-26T04:17:38;20.50;99.90
57108;DHT22;42987;52.916;6.542;2022-08-26T04:20:06;20.50;99.90
57108;DHT22;42987;52.916;6.542;2022-08-26T04:22:32;20.50;99.90
57108;DHT22;42987;52.916;6.542;2022-08-26T04:24:58;20.50;99.90
57108;DHT22;42987;52.916;6.542;2022-08-26T04:27:24;20.50;99.90
57108;DHT22;42987;52.916;6.542;2022-08-26T04:29:50;20.50;99.90
57108;DHT22;42987;52.916;6.542;2022-08-26T04:32:16;20.50;99.90
57108;DHT22;42987;52.916;6.542;2022-08-26T04:34:42;20.50;99.90
57108;DHT22;42987;52.916;6.542;2022-08-26T04:37:09;20.60;99.90
57108;DHT22;42987;52.916;6.542;2022-08-26T04:39:35;20.50;99.90
57108;DHT22;42987;52.916;6.542;2022-08-26T04:42:02;20.50;99.90
57108;DHT22;42987;52.916;6.542;2022-08-26T04:44:29;20.50;99.90
57108;DHT22;42987;52.916;6.542;2022-08-26T04:46:55;20.50;99.90
57108;DHT22;42987;52.916;6.542;2022-08-26T04:49:22;20.50;99.90
57108;DHT22;42987;52.916;6.542;2022-08-26T04:51:48;20.50;99.90
57108;DHT22;42987;52.916;6.542;2022-08-26T04:54:17;20.50;99.90
57108;DHT22;42987;52.916;6.542;2022-08-26T04:56:44;20.50;99.90
57108;DHT22;42987;52.916;6.542;2022-08-26T04:59:11;20.50;99.90
57108;DHT22;42987;52.916;6.542;2022-08-26T05:01:48;20.50;99.90
57108;DHT22;42987;52.916;6.542;2022-08-26T05:04:17;20.50;99.90
57108;DHT22;42987;52.916;6.542;2022-08-26T05:06:43;20.50;99.90
57108;DHT22;42987;52.916;6.542;2022-08-26T05:09:09;20.50;99.90
57108;DHT22;42987;52.916;6.542;2022-08-26T05:11:34;20.50;99.90
57108;DHT22;42987;52.916;6.542;2022-08-26T05:14:01;20.50;99.90
57108;DHT22;42987;52.916;6.542;2022-08-26T05:16:27;20.50;99.90
57108;DHT22;42987;52.916;6.542;2022-08-26T05:18:54;20.50;99.90
57108;DHT22;42987;52.916;6.542;2022-08-26T05:21:23;20.60;99.90
57108;DHT22;42987;52.916;6.542;2022-08-26T05:23:50;20.60;99.90
57108;DHT22;42987;52.916;6.542;2022-08-26T05:26:17;20.60;99.90
57108;DHT22;42987;52.916;6.542;2022-08-26T05:28:43;20.60;99.90
57108;DHT22;42987;52.916;6.542;2022-08-26T05:31:15;20.60;99.90
57108;DHT22;42987;52.916;6.542;2022-08-26T05:33:41;20.50;99.90
57108;DHT22;42987;52.916;6.542;2022-08-26T05:36:10;20.50;99.90
57108;DHT22;42987;52.916;6.542;2022-08-26T05:38:36;20.50;99.90
57108;DHT22;42987;52.916;6.542;2022-08-26T05:41:02;20.60;99.90
57108;DHT22;42987;52.916;6.542;2022-08-26T05:43:28;20.50;99.90
57108;DHT22;42987;52.916;6.542;2022-08-26T05:45:54;20.60;99.90
57108;DHT22;42987;52.916;6.542;2022-08-26T05:48:22;20.60;99.90
57108;DHT22;42987;52.916;6.542;2022-08-26T05:50:49;20.60;99.90
57108;DHT22;42987;52.916;6.542;2022-08-26T05:53:17;20.60;99.90
57108;DHT22;42987;52.916;6.542;2022-08-26T05:55:46;20.60;99.90
57108;DHT22;42987;52.916;6.542;2022-08-26T05:58:13;20.60;99.90
57108;DHT22;42987;52.916;6.542;2022-08-26T06:00:39;20.60;99.90
57108;DHT22;42987;52.916;6.542;2022-08-26T06:03:06;20.60;99.90
57108;DHT22;42987;52.916;6.542;2022-08-26T06:05:39;20.60;99.90
57108;DHT22;42987;52.916;6.542;2022-08-26T06:08:08;20.60;99.90
57108;DHT22;42987;52.916;6.542;2022-08-26T06:10:51;20.60;99.90
57108;DHT22;42987;52.916;6.542;2022-08-26T06:13:20;20.60;99.90
57108;DHT22;42987;52.916;6.542;2022-08-26T06:15:48;20.60;99.90
57108;DHT22;42987;52.916;6.542;2022-08-26T06:18:16;20.60;99.90
57108;DHT22;42987;52.916;6.542;2022-08-26T06:20:45;20.70;99.90
57108;DHT22;42987;52.916;6.542;2022-08-26T06:23:13;20.70;99.90
57108;DHT22;42987;52.916;6.542;2022-08-26T06:25:58;20.70;99.90
57108;DHT22;42987;52.916;6.542;2022-08-26T06:28:25;20.70;99.90
57108;DHT22;42987;52.916;6.542;2022-08-26T06:30:52;20.70;99.90
57108;DHT22;42987;52.916;6.542;2022-08-26T06:33:19;20.70;99.90
57108;DHT22;42987;52.916;6.542;2022-08-26T06:35:46;20.70;99.90
57108;DHT22;42987;52.916;6.542;2022-08-26T06:38:13;20.80;99.90
57108;DHT22;42987;52.916;6.542;2022-08-26T06:40:47;20.80;99.90
57108;DHT22;42987;52.916;6.542;2022-08-26T06:43:18;20.90;99.90
57108;DHT22;42987;52.916;6.542;2022-08-26T06:45:45;20.90;99.90
57108;DHT22;42987;52.916;6.542;2022-08-26T06:48:16;20.80;99.90
57108;DHT22;42987;52.916;6.542;2022-08-26T06:50:42;20.90;99.90
57108;DHT22;42987;52.916;6.542;2022-08-26T06:53:09;20.90;99.90
57108;DHT22;42987;52.916;6.542;2022-08-26T06:55:40;20.90;99.90
57108;DHT22;42987;52.916;6.542;2022-08-26T06:58:07;20.90;99.90
57108;DHT22;42987;52.916;6.542;2022-08-26T07:00:34;20.80;99.90
57108;DHT22;42987;52.916;6.542;2022-08-26T07:03:02;20.90;99.90
57108;DHT22;42987;52.916;6.542;2022-08-26T07:05:28;20.90;99.90
57108;DHT22;42987;52.916;6.542;2022-08-26T07:07:54;20.90;99.90
57108;DHT22;42987;52.916;6.542;2022-08-26T07:10:21;20.90;99.90
57108;DHT22;42987;52.916;6.542;2022-08-26T07:12:48;20.90;99.90
57108;DHT22;42987;52.916;6.542;2022-08-26T07:15:14;20.90;99.90
57108;DHT22;42987;52.916;6.542;2022-08-26T07:17:42;20.90;99.90
57108;DHT22;42987;52.916;6.542;2022-08-26T07:20:09;21.00;99.90
57108;DHT22;42987;52.916;6.542;2022-08-26T07:22:37;21.00;99.90
57108;DHT22;42987;52.916;6.542;2022-08-26T07:25:05;21.00;99.90
57108;DHT22;42987;52.916;6.542;2022-08-26T07:27:36;21.10;99.90
57108;DHT22;42987;52.916;6.542;2022-08-26T07:30:04;21.10;99.90
57108;DHT22;42987;52.916;6.542;2022-08-26T07:32:33;21.10;99.90
57108;DHT22;42987;52.916;6.542;2022-08-26T07:34:59;21.10;99.90
57108;DHT22;42987;52.916;6.542;2022-08-26T07:37:25;21.00;99.90
57108;DHT22;42987;52.916;6.542;2022-08-26T07:39:51;21.00;99.90
57108;DHT22;42987;52.916;6.542;2022-08-26T07:42:18;21.00;99.90
57108;DHT22;42987;52.916;6.542;2022-08-26T07:44:45;20.90;99.90
57108;DHT22;42987;52.916;6.542;2022-08-26T07:47:12;20.90;99.90
57108;DHT22;42987;52.916;6.542;2022-08-26T07:49:38;20.90;99.90
57108;DHT22;42987;52.916;6.542;2022-08-26T07:52:04;20.90;99.90
57108;DHT22;42987;52.916;6.542;2022-08-26T07:54:30;20.90;99.90
57108;DHT22;42987;52.916;6.542;2022-08-26T07:56:57;20.80;99.90
57108;DHT22;42987;52.916;6.542;2022-08-26T07:59:23;20.90;99.90
57108;DHT22;42987;52.916;6.542;2022-08-26T08:01:50;20.90;99.90
57108;DHT22;42987;52.916;6.542;2022-08-26T08:04:17;20.90;99.90
57108;DHT22;42987;52.916;6.542;2022-08-26T08:06:44;20.90;99.90
57108;DHT22;42987;52.916;6.542;2022-08-26T08:09:14;20.90;99.90
57108;DHT22;42987;52.916;6.542;2022-08-26T08:11:40;20.90;99.90
57108;DHT22;42987;52.916;6.542;2022-08-26T08:14:06;20.90;99.90
57108;DHT22;42987;52.916;6.542;2022-08-26T08:16:39;20.90;99.90
57108;DHT22;42987;52.916;6.542;2022-08-26T08:19:05;20.90;99.90
57108;DHT22;42987;52.916;6.542;2022-08-26T08:21:31;20.90;99.90
57108;DHT22;42987;52.916;6.542;2022-08-26T08:23:57;20.90;99.90
57108;DHT22;42987;52.916;6.542;2022-08-26T08:26:24;20.90;99.90
57108;DHT22;42987;52.916;6.542;2022-08-26T08:28:53;20.90;99.90
57108;DHT22;42987;52.916;6.542;2022-08-26T08:31:28;20.90;99.90
57108;DHT22;42987;52.916;6.542;2022-08-26T08:33:54;20.90;99.90
57108;DHT22;42987;52.916;6.542;2022-08-26T08:36:20;20.90;99.90
57108;DHT22;42987;52.916;6.542;2022-08-26T08:38:47;20.90;99.90
57108;DHT22;42987;52.916;6.542;2022-08-26T08:43:54;20.90;99.90
57108;DHT22;42987;52.916;6.542;2022-08-26T08:46:21;20.90;99.90
57108;DHT22;42987;52.916;6.542;2022-08-26T08:48:52;20.90;99.90
57108;DHT22;42987;52.916;6.542;2022-08-26T08:52:04;20.90;99.90
57108;DHT22;42987;52.916;6.542;2022-08-26T08:54:29;20.90;99.90
57108;DHT22;42987;52.916;6.542;2022-08-26T08:59:33;20.90;99.90
57108;DHT22;42987;52.916;6.542;2022-08-26T09:07:25;20.80;99.90
57108;DHT22;42987;52.916;6.542;2022-08-26T09:09:58;20.90;99.90
57108;DHT22;42987;52.916;6.542;2022-08-26T09:12:29;20.90;99.90
57108;DHT22;42987;52.916;6.542;2022-08-26T09:15:10;20.90;99.90
57108;DHT22;42987;52.916;6.542;2022-08-26T09:23:13;21.00;99.90
57108;DHT22;42987;52.916;6.542;2022-08-26T09:28:45;21.20;99.90
57108;DHT22;42987;52.916;6.542;2022-08-26T09:33:40;21.30;99.90
57108;DHT22;42987;52.916;6.542;2022-08-26T09:36:20;21.40;99.90
57108;DHT22;42987;52.916;6.542;2022-08-26T09:38:49;21.30;99.90
57108;DHT22;42987;52.916;6.542;2022-08-26T09:41:28;21.40;99.90
57108;DHT22;42987;52.916;6.542;2022-08-26T09:51:48;21.30;99.90
57108;DHT22;42987;52.916;6.542;2022-08-26T09:54:27;21.30;99.90
57108;DHT22;42987;52.916;6.542;2022-08-26T09:57:10;21.30;99.90
57108;DHT22;42987;52.916;6.542;2022-08-26T09:59:37;21.30;99.90
57108;DHT22;42987;52.916;6.542;2022-08-26T10:04:57;21.30;99.90
57108;DHT22;42987;52.916;6.542;2022-08-26T10:07:53;21.30;99.90
57108;DHT22;42987;52.916;6.542;2022-08-26T10:10:26;21.30;99.90
57108;DHT22;42987;52.916;6.542;2022-08-26T10:13:10;21.30;99.90
57108;DHT22;42987;52.916;6.542;2022-08-26T10:18:39;21.30;99.90
57108;DHT22;42987;52.916;6.542;2022-08-26T10:21:20;21.30;99.90
57108;DHT22;42987;52.916;6.542;2022-08-26T10:23:50;21.40;99.90
57108;DHT22;42987;52.916;6.542;2022-08-26T10:26:46;21.40;99.90
57108;DHT22;42987;52.916;6.542;2022-08-26T10:29:23;21.50;99.90
57108;DHT22;42987;52.916;6.542;2022-08-26T10:32:01;21.50;99.90
57108;DHT22;42987;52.916;6.542;2022-08-26T10:34:31;21.50;99.90
57108;DHT22;42987;52.916;6.542;2022-08-26T10:36:58;21.50;99.90
57108;DHT22;42987;52.916;6.542;2022-08-26T10:39:34;21.50;99.90
57108;DHT22;42987;52.916;6.542;2022-08-26T10:42:15;21.50;99.90
57108;DHT22;42987;52.916;6.542;2022-08-26T10:44:42;21.50;99.90
57108;DHT22;42987;52.916;6.542;2022-08-26T10:47:37;21.50;99.90
57108;DHT22;42987;52.916;6.542;2022-08-26T10:50:05;21.50;99.90
57108;DHT22;42987;52.916;6.542;2022-08-26T10:52:51;21.50;99.90
57108;DHT22;42987;52.916;6.542;2022-08-26T10:55:47;21.60;99.90
57108;DHT22;42987;52.916;6.542;2022-08-26T10:58:27;21.50;99.90
57108;DHT22;42987;52.916;6.542;2022-08-26T11:01:13;21.50;99.90
57108;DHT22;42987;52.916;6.542;2022-08-26T11:06:44;21.40;99.90
57108;DHT22;42987;52.916;6.542;2022-08-26T11:09:41;21.30;99.90
57108;DHT22;42987;52.916;6.542;2022-08-26T11:11:57;21.30;99.90
57108;DHT22;42987;52.916;6.542;2022-08-26T11:14:31;21.20;99.90
57108;DHT22;42987;52.916;6.542;2022-08-26T11:16:58;21.10;99.90
57108;DHT22;42987;52.916;6.542;2022-08-26T11:22:31;21.10;99.90
57108;DHT22;42987;52.916;6.542;2022-08-26T11:40:30;21.20;99.90
57108;DHT22;42987;52.916;6.542;2022-08-26T11:42:59;21.20;99.90
57108;DHT22;42987;52.916;6.542;2022-08-26T11:45:34;21.30;99.90
57108;DHT22;42987;52.916;6.542;2022-08-26T11:48:41;21.30;99.90
57108;DHT22;42987;52.916;6.542;2022-08-26T11:51:20;21.30;99.90
57108;DHT22;42987;52.916;6.542;2022-08-26T11:53:46;21.30;99.90
57108;DHT22;42987;52.916;6.542;2022-08-26T11:56:26;21.20;99.90
57108;DHT22;42987;52.916;6.542;2022-08-26T11:59:11;21.20;99.90
57108;DHT22;42987;52.916;6.542;2022-08-26T12:01:44;21.00;99.90
57108;DHT22;42987;52.916;6.542;2022-08-26T12:04:26;21.00;99.90
57108;DHT22;42987;52.916;6.542;2022-08-26T12:06:53;21.00;99.90
57108;DHT22;42987;52.916;6.542;2022-08-26T12:09:32;20.90;99.90
57108;DHT22;42987;52.916;6.542;2022-08-26T12:12:17;21.00;99.90
57108;DHT22;42987;52.916;6.542;2022-08-26T12:14:43;20.90;99.90
57108;DHT22;42987;52.916;6.542;2022-08-26T12:17:25;20.90;99.90
57108;DHT22;42987;52.916;6.542;2022-08-26T12:19:52;20.90;99.90
57108;DHT22;42987;52.916;6.542;2022-08-26T12:22:29;20.90;99.90
57108;DHT22;42987;52.916;6.542;2022-08-26T12:25:06;20.80;99.90
57108;DHT22;42987;52.916;6.542;2022-08-26T12:27:43;20.70;99.90
57108;DHT22;42987;52.916;6.542;2022-08-26T12:30:14;20.60;99.90
57108;DHT22;42987;52.916;6.542;2022-08-26T12:32:44;20.50;99.90
57108;DHT22;42987;52.916;6.542;2022-08-26T12:35:12;20.50;99.90
57108;DHT22;42987;52.916;6.542;2022-08-26T12:37:40;20.40;99.90
57108;DHT22;42987;52.916;6.542;2022-08-26T12:42:52;20.30;99.90
57108;DHT22;42987;52.916;6.542;2022-08-26T12:45:32;20.30;99.90
57108;DHT22;42987;52.916;6.542;2022-08-26T12:48:02;20.40;99.90
57108;DHT22;42987;52.916;6.542;2022-08-26T12:50:32;20.40;99.90
57108;DHT22;42987;52.916;6.542;2022-08-26T12:55:47;20.40;99.90
57108;DHT22;42987;52.916;6.542;2022-08-26T13:03:43;20.20;99.90
57108;DHT22;42987;52.916;6.542;2022-08-26T13:08:50;20.00;99.90
57108;DHT22;42987;52.916;6.542;2022-08-26T13:13:57;20.00;99.90
57108;DHT22;42987;52.916;6.542;2022-08-26T13:16:24;20.00;99.90
57108;DHT22;42987;52.916;6.542;2022-08-26T13:18:53;20.00;99.90
57108;DHT22;42987;52.916;6.542;2022-08-26T13:21:28;20.00;99.90
57108;DHT22;42987;52.916;6.542;2022-08-26T13:23:55;20.00;99.90
57108;DHT22;42987;52.916;6.542;2022-08-26T13:26:22;20.10;99.90
57108;DHT22;42987;52.916;6.542;2022-08-26T13:28:48;20.10;99.90
57108;DHT22;42987;52.916;6.542;2022-08-26T13:31:15;20.20;99.90
57108;DHT22;42987;52.916;6.542;2022-08-26T13:33:42;20.10;99.90
57108;DHT22;42987;52.916;6.542;2022-08-26T13:36:09;20.10;99.90
57108;DHT22;42987;52.916;6.542;2022-08-26T13:38:35;20.00;99.90
57108;DHT22;42987;52.916;6.542;2022-08-26T13:41:02;20.00;99.90
57108;DHT22;42987;52.916;6.542;2022-08-26T13:43:30;20.00;99.90
57108;DHT22;42987;52.916;6.542;2022-08-26T13:45:56;20.00;99.90
57108;DHT22;42987;52.916;6.542;2022-08-26T13:48:22;20.00;99.90
57108;DHT22;42987;52.916;6.542;2022-08-26T13:50:48;20.00;99.90
57108;DHT22;42987;52.916;6.542;2022-08-26T13:53:14;20.00;99.90
57108;DHT22;42987;52.916;6.542;2022-08-26T13:55:41;19.90;99.90
57108;DHT22;42987;52.916;6.542;2022-08-26T13:58:08;19.90;99.90
57108;DHT22;42987;52.916;6.542;2022-08-26T14:00:34;19.90;99.90
57108;DHT22;42987;52.916;6.542;2022-08-26T14:03:00;19.90;99.90
57108;DHT22;42987;52.916;6.542;2022-08-26T14:05:27;19.90;99.90
57108;DHT22;42987;52.916;6.542;2022-08-26T14:07:53;20.00;99.90
57108;DHT22;42987;52.916;6.542;2022-08-26T14:10:21;20.00;99.90
57108;DHT22;42987;52.916;6.542;2022-08-26T14:12:46;20.00;99.90
57108;DHT22;42987;52.916;6.542;2022-08-26T14:15:12;20.00;99.90
57108;DHT22;42987;52.916;6.542;2022-08-26T14:17:41;20.10;99.90
57108;DHT22;42987;52.916;6.542;2022-08-26T14:20:08;20.10;99.90
57108;DHT22;42987;52.916;6.542;2022-08-26T14:22:37;20.10;99.90
57108;DHT22;42987;52.916;6.542;2022-08-26T14:25:04;20.10;99.90
57108;DHT22;42987;52.916;6.542;2022-08-26T14:27:29;20.10;99.90
57108;DHT22;42987;52.916;6.542;2022-08-26T14:29:55;20.10;99.90
57108;DHT22;42987;52.916;6.542;2022-08-26T14:32:24;20.10;99.90
57108;DHT22;42987;52.916;6.542;2022-08-26T14:34:51;20.10;99.90
57108;DHT22;42987;52.916;6.542;2022-08-26T14:37:18;20.00;99.90
57108;DHT22;42987;52.916;6.542;2022-08-26T14:39:44;20.00;99.90
57108;DHT22;42987;52.916;6.542;2022-08-26T14:42:12;20.00;99.90
57108;DHT22;42987;52.916;6.542;2022-08-26T14:44:40;20.00;99.90
57108;DHT22;42987;52.916;6.542;2022-08-26T14:47:07;20.00;99.90
57108;DHT22;42987;52.916;6.542;2022-08-26T14:49:34;20.00;99.90
57108;DHT22;42987;52.916;6.542;2022-08-26T14:52:00;20.00;99.90
57108;DHT22;42987;52.916;6.542;2022-08-26T14:54:26;20.00;99.90
57108;DHT22;42987;52.916;6.542;2022-08-26T14:57:06;20.00;99.90
57108;DHT22;42987;52.916;6.542;2022-08-26T14:59:35;20.00;99.90
57108;DHT22;42987;52.916;6.542;2022-08-26T15:02:02;19.90;99.90
57108;DHT22;42987;52.916;6.542;2022-08-26T15:04:28;19.80;99.90
57108;DHT22;42987;52.916;6.542;2022-08-26T15:06:56;19.80;99.90
57108;DHT22;42987;52.916;6.542;2022-08-26T15:09:22;19.80;99.90
57108;DHT22;42987;52.916;6.542;2022-08-26T15:11:48;19.80;99.90
57108;DHT22;42987;52.916;6.542;2022-08-26T15:14:15;19.70;99.90
57108;DHT22;42987;52.916;6.542;2022-08-26T15:16:42;19.70;99.90
57108;DHT22;42987;52.916;6.542;2022-08-26T15:19:07;19.60;99.90
57108;DHT22;42987;52.916;6.542;2022-08-26T15:21:34;19.60;99.90
57108;DHT22;42987;52.916;6.542;2022-08-26T15:24:01;19.60;99.90
57108;DHT22;42987;52.916;6.542;2022-08-26T15:26:27;19.60;99.90
57108;DHT22;42987;52.916;6.542;2022-08-26T15:28:54;19.50;99.90
57108;DHT22;42987;52.916;6.542;2022-08-26T15:31:28;19.50;99.90
57108;DHT22;42987;52.916;6.542;2022-08-26T15:34:03;19.40;99.90
57108;DHT22;42987;52.916;6.542;2022-08-26T15:36:30;19.40;99.90
57108;DHT22;42987;52.916;6.542;2022-08-26T15:38:58;19.40;99.90
57108;DHT22;42987;52.916;6.542;2022-08-26T15:41:25;19.40;99.90
57108;DHT22;42987;52.916;6.542;2022-08-26T15:43:51;19.40;99.90
57108;DHT22;42987;52.916;6.542;2022-08-26T15:46:17;19.30;99.90
57108;DHT22;42987;52.916;6.542;2022-08-26T15:48:44;19.30;99.90
57108;DHT22;42987;52.916;6.542;2022-08-26T15:53:48;19.30;99.90
57108;DHT22;42987;52.916;6.542;2022-08-26T15:56:14;19.30;99.90
57108;DHT22;42987;52.916;6.542;2022-08-26T15:58:40;19.30;99.90
57108;DHT22;42987;52.916;6.542;2022-08-26T16:01:06;19.40;99.90
57108;DHT22;42987;52.916;6.542;2022-08-26T16:03:32;19.40;99.90
57108;DHT22;42987;52.916;6.542;2022-08-26T16:05:58;19.40;99.90
57108;DHT22;42987;52.916;6.542;2022-08-26T16:08:23;19.30;99.90
57108;DHT22;42987;52.916;6.542;2022-08-26T16:10:49;19.30;99.90
57108;DHT22;42987;52.916;6.542;2022-08-26T16:13:17;19.30;99.90
57108;DHT22;42987;52.916;6.542;2022-08-26T16:15:43;19.30;99.90
57108;DHT22;42987;52.916;6.542;2022-08-26T16:18:09;19.30;99.90
57108;DHT22;42987;52.916;6.542;2022-08-26T16:20:37;19.30;99.90
57108;DHT22;42987;52.916;6.542;2022-08-26T16:23:10;19.30;99.90
57108;DHT22;42987;52.916;6.542;2022-08-26T16:25:37;19.30;99.90
57108;DHT22;42987;52.916;6.542;2022-08-26T16:28:10;19.30;99.90
57108;DHT22;42987;52.916;6.542;2022-08-26T16:30:37;19.30;99.90
57108;DHT22;42987;52.916;6.542;2022-08-26T16:33:03;19.30;99.90
57108;DHT22;42987;52.916;6.542;2022-08-26T16:35:29;19.30;99.90
57108;DHT22;42987;52.916;6.542;2022-08-26T16:37:55;19.30;99.90
57108;DHT22;42987;52.916;6.542;2022-08-26T16:40:21;19.30;99.90
57108;DHT22;42987;52.916;6.542;2022-08-26T16:42:48;19.30;99.90
57108;DHT22;42987;52.916;6.542;2022-08-26T16:45:14;19.30;99.90
57108;DHT22;42987;52.916;6.542;2022-08-26T16:47:40;19.40;99.90
57108;DHT22;42987;52.916;6.542;2022-08-26T16:50:06;19.40;99.90
57108;DHT22;42987;52.916;6.542;2022-08-26T16:52:35;19.30;99.90
57108;DHT22;42987;52.916;6.542;2022-08-26T16:55:10;19.40;99.90
57108;DHT22;42987;52.916;6.542;2022-08-26T16:57:41;19.30;99.90